createdAt,value
2022-10-18T00:01:00.875Z,100398.84
2022-10-18T00:03:28.736Z,100384.53
2022-10-18T00:05:56.407Z,100394.06
2022-10-18T00:08:24.100Z,100384.75
2022-10-18T00:10:51.664Z,100385.81
2022-10-18T00:13:20.065Z,100385.47
2022-10-18T00:15:57.358Z,100381.31
2022-10-18T00:18:25.163Z,100381.31
2022-10-18T00:21:10.491Z,100372.00
2022-10-18T00:23:38.028Z,100373.19
2022-10-18T00:26:20.136Z,100374.97
2022-10-18T00:28:51.865Z,100377.84
2022-10-18T00:31:39.705Z,100369.03
2022-10-18T00:34:14.881Z,100370.22
2022-10-18T00:36:43.911Z,100369.50
2022-10-18T00:39:19.721Z,100364.75
2022-10-18T00:41:48.560Z,100366.88
2022-10-18T00:44:15.974Z,100364.38
2022-10-18T00:46:46.665Z,100364.38
2022-10-18T00:49:27.345Z,100361.88
2022-10-18T00:52:07.714Z,100357.81
2022-10-18T00:54:39.100Z,100364.50
2022-10-18T00:57:07.397Z,100356.50
2022-10-18T00:59:36.112Z,100353.88
2022-10-18T01:02:05.055Z,100353.50
2022-10-18T01:04:32.604Z,100346.00
2022-10-18T01:07:27.381Z,100343.63
2022-10-18T01:10:14.069Z,100345.41
2022-10-18T01:12:56.068Z,100336.94
2022-10-18T01:15:26.374Z,100332.44
2022-10-18T01:18:21.031Z,100330.28
2022-10-18T01:21:00.714Z,100327.28
2022-10-18T01:24:09.262Z,100333.72
2022-10-18T01:26:44.918Z,100329.44
2022-10-18T01:29:24.606Z,100320.75
2022-10-18T01:31:59.659Z,100327.56
2022-10-18T01:34:31.596Z,100319.19
2022-10-18T01:37:00.642Z,100314.78
2022-10-18T01:39:31.894Z,100319.31
2022-10-18T01:42:03.026Z,100315.50
2022-10-18T01:44:32.955Z,100310.50
2022-10-18T01:47:01.303Z,100304.28
2022-10-18T01:49:28.784Z,100305.13
2022-10-18T01:51:56.359Z,100302.00
2022-10-18T01:54:33.024Z,100301.91
2022-10-18T01:57:03.367Z,100299.75
2022-10-18T01:59:46.177Z,100300.50
2022-10-18T02:02:35.183Z,100286.19
2022-10-18T02:05:11.643Z,100287.59
2022-10-18T02:08:05.626Z,100281.66
2022-10-18T02:10:48.652Z,100294.50
2022-10-18T02:13:20.666Z,100284.84
2022-10-18T02:15:52.456Z,100288.09
2022-10-18T02:18:28.722Z,100289.03
2022-10-18T02:20:57.391Z,100283.53
2022-10-18T02:23:26.652Z,100288.91
2022-10-18T02:25:54.639Z,100288.31
2022-10-18T02:28:22.636Z,100292.56
2022-10-18T02:30:58.445Z,100289.97
2022-10-18T02:33:34.296Z,100296.53
2022-10-18T02:36:10.812Z,100288.69
2022-10-18T02:38:41.728Z,100288.53
2022-10-18T02:41:09.167Z,100295.94
2022-10-18T02:43:36.746Z,100288.44
2022-10-18T02:46:04.267Z,100290.94
2022-10-18T02:48:31.796Z,100289.75
2022-10-18T02:50:59.250Z,100286.88
2022-10-18T02:53:26.714Z,100290.69
2022-10-18T02:55:54.262Z,100284.47
2022-10-18T02:58:21.750Z,100289.47
2022-10-18T03:00:52.158Z,100291.25
2022-10-18T03:03:20.740Z,100289.00
2022-10-18T03:05:52.600Z,100291.72
2022-10-18T03:08:20.440Z,100299.47
2022-10-18T03:10:47.928Z,100299.72
2022-10-18T03:13:16.008Z,100297.44
2022-10-18T03:15:43.671Z,100300.91
2022-10-18T03:18:11.125Z,100300.78
2022-10-18T03:20:38.767Z,100298.88
2022-10-18T03:23:07.248Z,100308.91
2022-10-18T03:25:34.759Z,100305.31
2022-10-18T03:28:02.315Z,100304.97
2022-10-18T03:30:29.887Z,100309.13
2022-10-18T03:32:57.526Z,100304.13
2022-10-18T03:35:25.066Z,100305.56
2022-10-18T03:37:52.589Z,100305.66
2022-10-18T03:40:20.739Z,100305.91
2022-10-18T03:42:48.271Z,100307.06
2022-10-18T03:45:15.826Z,100310.03
2022-10-18T03:47:43.312Z,100317.66
2022-10-18T03:50:11.006Z,100314.22
2022-10-18T03:52:38.525Z,100315.78
2022-10-18T03:55:06.817Z,100312.81
2022-10-18T03:57:34.336Z,100316.13
2022-10-18T04:00:02.260Z,100309.38
2022-10-18T04:02:40.584Z,100309.97
2022-10-18T04:05:09.009Z,100302.69
2022-10-18T04:10:10.581Z,100303.19
2022-10-18T04:12:38.300Z,100302.44
2022-10-18T04:15:06.413Z,100304.97
2022-10-18T04:17:34.525Z,100300.53
2022-10-18T04:20:02.388Z,100300.66
2022-10-18T04:22:30.258Z,100303.72
2022-10-18T04:24:57.878Z,100296.31
2022-10-18T04:27:25.449Z,100299.84
2022-10-18T04:29:53.209Z,100299.63
2022-10-18T04:32:20.633Z,100296.75
2022-10-18T04:34:48.140Z,100293.69
2022-10-18T04:37:15.660Z,100291.72
2022-10-18T04:39:51.161Z,100299.22
2022-10-18T04:42:22.028Z,100288.56
2022-10-18T04:44:49.675Z,100287.41
2022-10-18T04:47:18.495Z,100289.34
2022-10-18T04:49:46.319Z,100284.69
2022-10-18T04:52:14.974Z,100281.50
2022-10-18T04:54:42.462Z,100274.53
2022-10-18T04:57:10.046Z,100270.25
2022-10-18T04:59:37.566Z,100271.31
2022-10-18T05:02:05.119Z,100276.25
2022-10-18T05:04:32.632Z,100277.72
2022-10-18T05:07:00.163Z,100267.84
2022-10-18T05:09:27.802Z,100273.94
2022-10-18T05:11:55.302Z,100270.66
2022-10-18T05:14:22.812Z,100273.16
2022-10-18T05:16:50.323Z,100271.50
2022-10-18T05:19:17.887Z,100270.09
2022-10-18T05:21:47.551Z,100273.59
2022-10-18T05:24:15.111Z,100278.28
2022-10-18T05:26:42.641Z,100275.97
2022-10-18T05:29:10.380Z,100274.34
2022-10-18T05:31:37.890Z,100273.19
2022-10-18T05:34:05.447Z,100270.72
2022-10-18T05:36:33.017Z,100272.41
2022-10-18T05:39:04.925Z,100271.94
2022-10-18T05:41:32.924Z,100272.69
2022-10-18T05:44:04.734Z,100268.19
2022-10-18T05:46:33.127Z,100271.03
2022-10-18T05:49:01.071Z,100269.63
2022-10-18T05:51:28.607Z,100271.16
2022-10-18T05:53:56.139Z,100272.00
2022-10-18T05:56:23.615Z,100277.50
2022-10-18T05:58:52.194Z,100278.06
2022-10-18T06:01:20.175Z,100276.16
2022-10-18T06:03:47.871Z,100275.03
2022-10-18T06:06:15.678Z,100275.16
2022-10-18T06:08:44.375Z,100277.63
2022-10-18T06:11:14.877Z,100270.97
2022-10-18T06:13:43.788Z,100270.78
2022-10-18T06:16:13.143Z,100271.47
2022-10-18T06:18:51.710Z,100280.13
2022-10-18T06:21:19.818Z,100282.09
2022-10-18T06:23:51.506Z,100287.25
2022-10-18T06:26:19.365Z,100289.91
2022-10-18T06:28:46.836Z,100286.69
2022-10-18T06:31:16.325Z,100288.97
2022-10-18T06:33:45.827Z,100281.41
2022-10-18T06:36:16.184Z,100280.28
2022-10-18T06:38:44.275Z,100276.09
2022-10-18T06:41:12.101Z,100273.41
2022-10-18T06:43:39.819Z,100273.91
2022-10-18T06:46:08.330Z,100283.13
2022-10-18T06:48:37.039Z,100283.19
2022-10-18T06:51:07.438Z,100287.97
2022-10-18T06:53:44.040Z,100283.97
2022-10-18T06:56:20.832Z,100288.25
2022-10-18T06:58:48.318Z,100282.09
2022-10-18T07:01:18.357Z,100292.06
2022-10-18T07:03:47.622Z,100292.66
2022-10-18T07:06:17.788Z,100287.19
2022-10-18T07:08:46.755Z,100285.38
2022-10-18T07:11:20.835Z,100286.63
2022-10-18T07:13:48.306Z,100284.53
2022-10-18T07:16:18.654Z,100274.91
2022-10-18T07:18:49.861Z,100274.19
2022-10-18T07:21:20.190Z,100278.38
2022-10-18T07:23:47.941Z,100280.44
2022-10-18T07:26:22.880Z,100272.59
2022-10-18T07:28:55.194Z,100260.81
2022-10-18T07:31:23.637Z,100275.63
2022-10-18T07:33:52.124Z,100263.06
2022-10-18T07:36:21.349Z,100260.78
2022-10-18T07:38:49.609Z,100261.78
2022-10-18T07:41:17.479Z,100262.59
2022-10-18T07:43:47.632Z,100256.75
2022-10-18T07:48:59.560Z,100257.09
2022-10-18T07:51:28.118Z,100257.34
2022-10-18T07:53:55.676Z,100253.59
2022-10-18T07:56:23.191Z,100248.03
2022-10-18T07:58:52.764Z,100250.94
2022-10-18T08:01:22.672Z,100259.66
2022-10-18T08:03:53.584Z,100249.63
2022-10-18T08:06:22.898Z,100241.81
2022-10-18T08:08:50.584Z,100234.25
2022-10-18T08:11:21.118Z,100235.91
2022-10-18T08:13:48.785Z,100243.28
2022-10-18T08:16:19.331Z,100233.66
2022-10-18T08:18:47.028Z,100228.56
2022-10-18T08:21:16.642Z,100224.94
2022-10-18T08:23:45.109Z,100229.50
2022-10-18T08:26:18.421Z,100222.31
2022-10-18T08:28:53.826Z,100230.19
2022-10-18T08:31:31.361Z,100222.13
2022-10-18T08:33:58.919Z,100218.34
2022-10-18T08:36:26.391Z,100214.84
2022-10-18T08:38:53.947Z,100212.31
2022-10-18T08:41:42.476Z,100214.13
2022-10-18T08:44:24.027Z,100218.94
2022-10-18T08:46:58.701Z,100219.50
2022-10-18T08:49:46.255Z,100216.28
2022-10-18T08:52:52.766Z,100202.97
2022-10-18T08:55:41.063Z,100199.69
2022-10-18T08:58:22.144Z,100202.16
2022-10-18T09:01:01.663Z,100196.47
2022-10-18T09:03:29.222Z,100198.56
2022-10-18T09:06:11.962Z,100195.53
2022-10-18T09:09:00.919Z,100205.88
2022-10-18T09:11:44.615Z,100189.00
2022-10-18T09:14:32.242Z,100191.28
2022-10-18T09:17:37.356Z,100195.63
2022-10-18T09:20:17.747Z,100189.00
2022-10-18T09:22:54.252Z,100193.03
2022-10-18T09:25:26.515Z,100179.09
2022-10-18T09:28:01.068Z,100175.94
2022-10-18T09:30:43.677Z,100180.88
2022-10-18T09:33:26.698Z,100179.03
2022-10-18T09:36:01.373Z,100172.31
2022-10-18T09:38:32.781Z,100172.97
2022-10-18T09:41:20.704Z,100177.13
2022-10-18T09:43:54.744Z,100163.84
2022-10-18T09:46:26.798Z,100153.75
2022-10-18T09:49:05.938Z,100152.84
2022-10-18T09:51:42.661Z,100154.53
2022-10-18T09:54:31.045Z,100153.88
2022-10-18T09:57:06.668Z,100159.88
2022-10-18T09:59:36.352Z,100149.22
2022-10-18T10:02:05.258Z,100142.03
2022-10-18T10:04:33.213Z,100133.41
2022-10-18T10:07:02.333Z,100133.78
2022-10-18T10:09:58.105Z,100127.81
2022-10-18T10:12:35.802Z,100135.97
2022-10-18T10:15:27.006Z,100117.22
2022-10-18T10:17:58.485Z,100113.19
2022-10-18T10:20:31.898Z,100124.56
2022-10-18T10:23:13.924Z,100115.69
2022-10-18T10:25:42.664Z,100115.75
2022-10-18T10:28:16.579Z,100116.09
2022-10-18T10:30:44.557Z,100103.00
2022-10-18T10:33:36.427Z,100092.13
2022-10-18T10:36:15.798Z,100093.22
2022-10-18T10:38:43.283Z,100086.88
2022-10-18T10:41:23.862Z,100087.09
2022-10-18T10:43:51.600Z,100085.13
2022-10-18T10:46:20.572Z,100087.47
2022-10-18T10:48:56.277Z,100079.91
2022-10-18T10:51:34.110Z,100080.03
2022-10-18T10:54:15.935Z,100072.31
2022-10-18T10:56:58.618Z,100073.22
2022-10-18T10:59:29.010Z,100068.72
2022-10-18T11:02:21.752Z,100066.00
2022-10-18T11:04:55.058Z,100068.81
2022-10-18T11:07:41.940Z,100062.25
2022-10-18T11:10:09.336Z,100059.84
2022-10-18T11:12:44.741Z,100053.59
2022-10-18T11:15:24.888Z,100044.81
2022-10-18T11:18:10.812Z,100043.81
2022-10-18T11:21:19.013Z,100036.28
2022-10-18T11:23:46.697Z,100027.75
2022-10-18T11:26:55.304Z,100033.03
2022-10-18T11:29:52.061Z,100024.97
2022-10-18T11:32:45.840Z,100020.16
2022-10-18T11:35:51.860Z,100024.34
2022-10-18T11:38:45.529Z,100018.91
2022-10-18T11:41:15.728Z,100011.38
2022-10-18T11:44:19.272Z,100010.94
2022-10-18T11:47:11.676Z,100008.56
2022-10-18T11:49:54.319Z,100006.59
2022-10-18T11:52:39.696Z,99989.22
2022-10-18T11:55:33.000Z,99988.50
2022-10-18T11:58:07.063Z,99986.25
2022-10-18T12:00:55.193Z,99981.16
2022-10-18T12:03:41.874Z,99979.34
2022-10-18T12:06:16.762Z,99969.41
2022-10-18T12:08:51.563Z,99972.28
2022-10-18T12:11:24.562Z,99963.91
2022-10-18T12:13:57.771Z,99959.03
2022-10-18T12:16:49.858Z,99958.13
2022-10-18T12:19:27.445Z,99947.13
2022-10-18T12:22:16.585Z,99949.84
2022-10-18T12:24:44.146Z,99946.72
2022-10-18T12:27:14.347Z,99945.84
2022-10-18T12:29:53.333Z,99939.06
2022-10-18T12:32:27.629Z,99937.16
2022-10-18T12:35:05.804Z,99930.81
2022-10-18T12:37:42.310Z,99928.16
2022-10-18T12:40:36.100Z,99941.06
2022-10-18T12:43:09.908Z,99921.69
2022-10-18T12:45:50.819Z,99917.78
2022-10-18T12:48:35.585Z,99914.47
2022-10-18T12:51:16.891Z,99898.56
2022-10-18T12:53:46.587Z,99903.56
2022-10-18T12:56:29.590Z,99898.94
2022-10-18T12:59:15.381Z,99898.03
2022-10-18T13:01:52.111Z,99885.38
2022-10-18T13:04:28.754Z,99888.22
2022-10-18T13:07:05.305Z,99891.91
2022-10-18T13:09:38.613Z,99880.81
2022-10-18T13:12:09.098Z,99875.94
2022-10-18T13:15:20.828Z,99876.34
2022-10-18T13:18:21.740Z,99885.16
2022-10-18T13:21:27.862Z,99891.56
2022-10-18T13:24:13.866Z,99883.47
2022-10-18T13:26:59.098Z,99885.38
2022-10-18T13:30:00.119Z,99886.28
2022-10-18T13:32:37.349Z,99872.06
2022-10-18T13:35:42.772Z,99871.16
2022-10-18T13:38:36.864Z,99880.97
2022-10-18T13:41:11.281Z,99880.84
2022-10-18T13:43:55.120Z,99876.03
2022-10-18T13:46:24.843Z,99875.31
2022-10-18T13:49:00.739Z,99870.78
2022-10-18T13:51:56.724Z,99866.97
2022-10-18T13:54:52.037Z,99856.41
2022-10-18T13:57:41.100Z,99851.59
2022-10-18T14:00:33.535Z,99843.53
2022-10-18T14:03:31.984Z,99855.72
2022-10-18T14:06:07.069Z,99855.28
2022-10-18T14:08:49.727Z,99843.19
2022-10-18T14:11:35.509Z,99839.06
2022-10-18T14:14:15.055Z,99848.50
2022-10-18T14:16:51.486Z,99845.34
2022-10-18T14:19:28.886Z,99842.34
2022-10-18T14:22:28.575Z,99842.53
2022-10-18T14:24:58.034Z,99835.34
2022-10-18T14:27:32.536Z,99839.41
2022-10-18T14:30:16.635Z,99827.13
2022-10-18T14:32:47.624Z,99824.44
2022-10-18T14:35:32.942Z,99822.78
2022-10-18T14:38:02.549Z,99820.84
2022-10-18T14:40:37.889Z,99813.09
2022-10-18T14:43:14.075Z,99808.72
2022-10-18T14:45:42.557Z,99803.50
2022-10-18T14:48:23.538Z,99802.34
2022-10-18T14:50:59.426Z,99799.25
2022-10-18T14:53:37.522Z,99799.19
2022-10-18T14:56:07.497Z,99792.28
2022-10-18T14:58:37.988Z,99795.66
2022-10-18T15:01:06.048Z,99793.78
2022-10-18T15:03:35.824Z,99793.41
2022-10-18T15:06:05.827Z,99794.31
2022-10-18T15:08:40.492Z,99785.88
2022-10-18T15:11:11.888Z,99786.25
2022-10-18T15:13:57.466Z,99791.59
2022-10-18T15:16:30.779Z,99798.94
2022-10-18T15:19:06.266Z,99795.88
2022-10-18T15:21:36.924Z,99781.72
2022-10-18T15:24:36.422Z,99785.81
2022-10-18T15:27:19.087Z,99774.25
2022-10-18T15:29:46.857Z,99776.91
2022-10-18T15:32:35.579Z,99778.06
2022-10-18T15:35:32.238Z,99777.63
2022-10-18T15:38:21.032Z,99777.41
2022-10-18T15:40:48.651Z,99782.66
2022-10-18T15:43:28.288Z,99778.78
2022-10-18T15:46:05.357Z,99769.63
2022-10-18T15:48:39.806Z,99771.28
2022-10-18T15:51:19.329Z,99774.44
2022-10-18T15:53:55.671Z,99757.25
2022-10-18T15:56:42.342Z,99756.06
2022-10-18T15:59:27.761Z,99762.34
2022-10-18T16:01:55.881Z,99762.44
2022-10-18T16:04:33.099Z,99774.47
2022-10-18T16:07:00.745Z,99779.38
2022-10-18T16:09:29.114Z,99780.38
2022-10-18T16:11:58.556Z,99772.03
2022-10-18T16:14:26.428Z,99776.88
2022-10-18T16:16:56.147Z,99779.91
2022-10-18T16:19:24.041Z,99788.09
2022-10-18T16:21:56.473Z,99791.94
2022-10-18T16:24:24.419Z,99788.34
2022-10-18T16:26:52.033Z,99796.81
2022-10-18T16:29:24.507Z,99793.88
2022-10-18T16:31:55.262Z,99794.19
2022-10-18T16:34:22.819Z,99794.53
2022-10-18T16:36:50.261Z,99796.16
2022-10-18T16:39:19.969Z,99800.81
2022-10-18T16:41:48.108Z,99803.28
2022-10-18T16:44:16.752Z,99812.34
2022-10-18T16:46:44.246Z,99807.03
2022-10-18T16:51:54.492Z,99791.19
2022-10-18T16:54:22.875Z,99797.56
2022-10-18T16:56:50.572Z,99798.31
2022-10-18T16:59:29.092Z,99794.69
2022-10-18T17:01:56.704Z,99790.44
2022-10-18T17:04:24.284Z,99794.72
2022-10-18T17:06:54.330Z,99804.69
2022-10-18T17:09:21.897Z,99801.75
2022-10-18T17:11:49.694Z,99815.59
2022-10-18T17:14:17.222Z,99802.72
2022-10-18T17:16:54.863Z,99810.13
2022-10-18T17:19:24.299Z,99810.56
2022-10-18T17:21:51.886Z,99808.78
2022-10-18T17:24:19.315Z,99812.56
2022-10-18T17:26:46.803Z,99810.75
2022-10-18T17:29:14.315Z,99809.13
2022-10-18T17:31:42.090Z,99799.28
2022-10-18T17:34:09.586Z,99792.06
2022-10-18T17:36:37.334Z,99789.72
2022-10-18T17:39:07.546Z,99784.97
2022-10-18T17:41:35.063Z,99790.56
2022-10-18T17:44:04.303Z,99795.47
2022-10-18T17:46:32.004Z,99792.25
2022-10-18T17:48:59.562Z,99793.25
2022-10-18T17:51:27.150Z,99786.19
2022-10-18T17:53:54.708Z,99797.09
2022-10-18T17:56:22.285Z,99801.47
2022-10-18T17:58:53.131Z,99789.75
2022-10-18T18:01:23.273Z,99800.56
2022-10-18T18:03:56.722Z,99795.66
2022-10-18T18:06:34.147Z,99791.38
2022-10-18T18:09:08.365Z,99790.56
2022-10-18T18:11:38.422Z,99783.72
2022-10-18T18:14:09.064Z,99781.91
2022-10-18T18:16:38.934Z,99782.06
2022-10-18T18:19:09.651Z,99783.38
2022-10-18T18:21:41.543Z,99778.00
2022-10-18T18:24:10.169Z,99778.53
2022-10-18T18:26:40.019Z,99783.03
2022-10-18T18:29:07.561Z,99788.28
2022-10-18T18:31:40.045Z,99784.78
2022-10-18T18:34:10.404Z,99775.09
2022-10-18T18:36:38.767Z,99777.00
2022-10-18T18:39:07.339Z,99768.47
2022-10-18T18:41:35.372Z,99761.09
2022-10-18T18:44:05.310Z,99754.69
2022-10-18T18:46:38.234Z,99766.84
2022-10-18T18:49:07.061Z,99754.69
2022-10-18T18:51:38.032Z,99748.97
2022-10-18T18:54:07.109Z,99755.72
2022-10-18T18:56:34.755Z,99744.81
2022-10-18T18:59:02.966Z,99756.69
2022-10-18T19:01:32.874Z,99753.59
2022-10-18T19:04:00.708Z,99748.34
2022-10-18T19:06:39.794Z,99748.88
2022-10-18T19:09:25.525Z,99735.84
2022-10-18T19:11:55.398Z,99753.50
2022-10-18T19:14:25.039Z,99753.06
2022-10-18T19:16:55.147Z,99737.91
2022-10-18T19:19:24.814Z,99728.59
2022-10-18T19:21:54.853Z,99739.00
2022-10-18T19:24:24.022Z,99737.22
2022-10-18T19:26:53.885Z,99734.28
2022-10-18T19:29:24.092Z,99739.72
2022-10-18T19:31:56.664Z,99733.53
2022-10-18T19:34:26.505Z,99734.91
2022-10-18T19:36:54.207Z,99740.59
2022-10-18T19:39:26.697Z,99740.34
2022-10-18T19:41:56.127Z,99735.81
2022-10-18T19:44:25.679Z,99745.47
2022-10-18T19:46:53.591Z,99744.06
2022-10-18T19:49:22.349Z,99743.81
2022-10-18T19:51:49.997Z,99743.94
2022-10-18T19:54:17.767Z,99738.84
2022-10-18T19:56:45.355Z,99735.50
2022-10-18T19:59:15.569Z,99737.44
2022-10-18T20:01:44.144Z,99729.72
2022-10-18T20:04:12.907Z,99731.06
2022-10-18T20:06:41.361Z,99730.25
2022-10-18T20:09:13.484Z,99723.47
2022-10-18T20:11:43.859Z,99726.06
2022-10-18T20:14:11.361Z,99723.16
2022-10-18T20:16:38.831Z,99726.88
2022-10-18T20:19:09.737Z,99727.19
2022-10-18T20:21:37.462Z,99721.81
2022-10-18T20:24:06.196Z,99723.25
2022-10-18T20:26:35.790Z,99722.13
2022-10-18T20:29:04.180Z,99721.59
2022-10-18T20:31:35.578Z,99720.75
2022-10-18T20:34:06.313Z,99718.97
2022-10-18T20:36:34.762Z,99723.50
2022-10-18T20:39:03.558Z,99723.19
2022-10-18T20:41:34.048Z,99721.13
2022-10-18T20:44:04.312Z,99710.22
2022-10-18T20:46:34.128Z,99711.06
2022-10-18T20:49:02.110Z,99699.19
2022-10-18T20:51:29.803Z,99700.97
2022-10-18T20:53:57.406Z,99707.97
2022-10-18T20:56:28.904Z,99700.00
2022-10-18T20:58:57.806Z,99703.59
2022-10-18T21:01:28.129Z,99695.19
2022-10-18T21:04:09.953Z,99696.84
2022-10-18T21:06:40.980Z,99699.03
2022-10-18T21:09:11.827Z,99689.94
2022-10-18T21:11:44.678Z,99698.66
2022-10-18T21:14:17.617Z,99701.25
2022-10-18T21:16:48.645Z,99696.81
2022-10-18T21:19:19.931Z,99694.75
2022-10-18T21:21:50.480Z,99695.03
2022-10-18T21:24:19.905Z,99698.88
2022-10-18T21:26:51.165Z,99699.31
2022-10-18T21:29:22.325Z,99695.88
2022-10-18T21:31:54.323Z,99692.13
2022-10-18T21:34:22.248Z,99679.72
2022-10-18T21:36:49.738Z,99674.59
2022-10-18T21:39:19.802Z,99679.03
2022-10-18T21:41:47.603Z,99678.88
2022-10-18T21:44:16.252Z,99671.97
2022-10-18T21:46:44.413Z,99672.13
2022-10-18T21:49:13.599Z,99660.78
2022-10-18T21:51:41.598Z,99656.91
2022-10-18T21:54:13.117Z,99660.25
2022-10-18T21:56:41.370Z,99654.16
2022-10-18T21:59:12.134Z,99663.03
2022-10-18T22:01:40.218Z,99655.94
2022-10-18T22:04:20.990Z,99647.53
2022-10-18T22:06:48.991Z,99651.16
2022-10-18T22:09:16.532Z,99651.41
2022-10-18T22:11:49.167Z,99649.19
2022-10-18T22:14:16.630Z,99640.63
2022-10-18T22:16:44.185Z,99643.47
2022-10-18T22:19:12.499Z,99640.69
2022-10-18T22:21:41.143Z,99643.63
2022-10-18T22:24:09.945Z,99647.69
2022-10-18T22:26:40.214Z,99640.78
2022-10-18T22:29:15.581Z,99627.88
2022-10-18T22:31:46.246Z,99630.44
2022-10-18T22:34:16.779Z,99622.72
2022-10-18T22:36:45.820Z,99628.31
2022-10-18T22:39:14.531Z,99628.34
2022-10-18T22:41:42.868Z,99634.34
2022-10-18T22:44:14.470Z,99637.94
2022-10-18T22:46:42.811Z,99626.50
2022-10-18T22:49:11.256Z,99629.22
2022-10-18T22:51:38.783Z,99625.28
2022-10-18T22:54:06.283Z,99634.03
2022-10-18T22:56:33.791Z,99641.22
2022-10-18T22:59:01.452Z,99634.97
2022-10-18T23:01:29.019Z,99630.47
2022-10-18T23:03:58.827Z,99630.94
2022-10-18T23:06:34.189Z,99627.53
2022-10-18T23:09:05.494Z,99618.16
2022-10-18T23:11:34.616Z,99615.91
2022-10-18T23:14:03.753Z,99615.91
2022-10-18T23:16:31.668Z,99611.75
2022-10-18T23:18:59.374Z,99613.47
2022-10-18T23:21:28.286Z,99609.00
2022-10-18T23:23:56.783Z,99608.16
2022-10-18T23:26:27.579Z,99607.41
2022-10-18T23:28:55.624Z,99601.47
2022-10-18T23:31:29.052Z,99597.19
2022-10-18T23:33:58.841Z,99598.22
2022-10-18T23:36:26.849Z,99599.81
2022-10-18T23:38:55.287Z,99602.00
2022-10-18T23:41:23.584Z,99599.28
2022-10-18T23:43:51.558Z,99596.97
2022-10-18T23:46:19.721Z,99591.09
2022-10-18T23:48:47.868Z,99593.59
2022-10-18T23:51:17.287Z,99581.47
2022-10-18T23:53:45.021Z,99579.44
2022-10-18T23:56:15.786Z,99584.16
2022-10-18T23:58:44.983Z,99587.47
